Time;durP1;ratioP1;P1;durP2;ratioP2;P2;SDS_P1;SDS_P2;PMS_P1;PMS_P2;Temp;Humidity;BMP_temperature;BMP_pressure;BME280_temperature;BME280_humidity;BME280_pressure;Samples;Min_cycle;Max_cycle;Signal;HPM_P1;HPM_P2
2022/09/11 00:01:17;;;;;;;3.73;3.43;;;;;;;18.37;62.78;101272.53;4949487;28;97104;-47
2022/09/11 00:03:44;;;;;;;3.27;3.07;;;;;;;18.39;62.85;101274.81;4948845;28;97074;-50
2022/09/11 00:06:12;;;;;;;3.47;3.27;;;;;;;18.37;62.80;101274.59;4946762;28;97076;-47
2022/09/11 00:08:39;;;;;;;3.33;3.07;;;;;;;18.34;62.83;101270.09;4928888;28;96894;-48
2022/09/11 00:11:16;;;;;;;2.97;2.77;;;;;;;18.32;62.81;101272.66;4935762;28;97872;-48
2022/09/11 00:13:43;;;;;;;3.20;3.00;;;;;;;18.26;62.70;101264.38;4946663;28;102859;-54
2022/09/11 00:16:20;;;;;;;3.27;3.07;;;;;;;18.23;62.91;101276.59;4945450;28;96705;-48
2022/09/11 00:18:46;;;;;;;3.57;3.27;;;;;;;18.21;62.77;101281.19;4927626;28;97494;-48
2022/09/11 00:21:11;;;;;;;3.60;3.40;;;;;;;18.19;62.75;101278.19;4925128;28;100768;-48
2022/09/11 00:23:37;;;;;;;2.50;2.40;;;;;;;18.18;62.93;101279.44;4932573;28;97172;-48
2022/09/11 00:26:03;;;;;;;3.20;3.00;;;;;;;18.11;62.76;101271.72;4939837;28;96959;-48
2022/09/11 00:28:29;;;;;;;3.67;3.33;;;;;;;18.09;62.95;101268.69;4933709;28;97169;-49
2022/09/11 00:30:59;;;;;;;3.93;3.63;;;;;;;18.10;62.81;101286.91;4937606;28;96873;-48
2022/09/11 00:33:26;;;;;;;3.40;3.20;;;;;;;18.03;62.88;101288.28;4929239;28;99123;-48
2022/09/11 00:36:00;;;;;;;5.93;3.40;;;;;;;17.99;62.85;101279.50;4926714;28;97028;-49
2022/09/11 00:38:27;;;;;;;4.30;3.83;;;;;;;17.98;63.00;101280.75;4930852;28;98628;-49
2022/09/11 00:40:53;;;;;;;4.80;4.40;;;;;;;17.95;63.26;101277.00;4933072;28;98544;-49
2022/09/11 00:43:19;;;;;;;5.07;4.10;;;;;;;17.98;63.22;101298.22;4938051;28;97306;-50
2022/09/11 00:45:51;;;;;;;7.90;5.60;;;;;;;18.03;63.42;101276.38;4949102;28;97237;-55
2022/09/11 00:48:21;;;;;;;8.60;5.83;;;;;;;18.07;63.53;101276.81;4929003;28;97043;-50
2022/09/11 00:50:49;;;;;;;6.83;5.10;;;;;;;18.10;63.44;101284.13;4938824;28;97126;-53
2022/09/11 00:53:17;;;;;;;7.00;5.37;;;;;;;18.08;63.51;101290.25;4934448;28;100163;-47
2022/09/11 00:55:49;;;;;;;6.50;5.80;;;;;;;18.10;63.75;101286.91;4938282;28;98006;-48
2022/09/11 00:58:18;;;;;;;6.37;5.80;;;;;;;18.10;63.65;101287.69;4934979;28;97208;-46
2022/09/11 01:00:44;;;;;;;7.73;5.60;;;;;;;18.12;63.62;101279.53;4926843;28;97125;-49
2022/09/11 01:03:10;;;;;;;6.67;6.00;;;;;;;18.15;63.81;101283.31;4936821;28;97061;-51
2022/09/11 01:05:38;;;;;;;16.50;6.13;;;;;;;18.15;63.75;101291.66;4932735;28;97141;-49
2022/09/11 01:08:05;;;;;;;7.53;6.83;;;;;;;18.14;63.77;101292.94;4944886;28;97102;-48
2022/09/11 01:10:37;;;;;;;10.20;5.90;;;;;;;18.16;64.16;101298.72;4926032;28;102174;-48
2022/09/11 01:13:20;;;;;;;11.70;6.50;;;;;;;18.14;64.41;101299.25;4930688;28;103056;-48
2022/09/11 01:16:03;;;;;;;7.40;6.70;;;;;;;18.14;64.05;101302.03;4941231;28;96685;-49
2022/09/11 01:18:53;;;;;;;7.70;6.63;;;;;;;18.19;64.31;101303.25;4925910;28;96876;-48
2022/09/11 01:21:51;;;;;;;8.07;5.97;;;;;;;18.16;64.54;101307.06;4944434;28;102960;-49
2022/09/11 01:24:44;;;;;;;12.70;6.30;;;;;;;18.15;64.61;101317.47;4945255;28;103053;-48
2022/09/11 01:27:34;;;;;;;7.87;6.30;;;;;;;18.14;64.79;101304.81;4944809;28;97229;-48
2022/09/11 01:30:13;;;;;;;7.00;6.33;;;;;;;18.16;64.74;101318.22;4942862;28;99464;-48
2022/09/11 01:33:05;;;;;;;12.93;6.97;;;;;;;18.18;64.43;101304.50;4944357;28;97423;-48
2022/09/11 01:35:55;;;;;;;11.10;7.37;;;;;;;18.19;65.10;101311.59;4948252;28;100043;-48
2022/09/11 01:38:44;;;;;;;11.77;8.07;;;;;;;18.19;64.39;101314.38;4931382;28;97241;-49
2022/09/11 01:41:19;;;;;;;9.03;7.80;;;;;;;18.20;64.53;101316.63;4943363;28;97381;-49
2022/09/11 01:44:02;;;;;;;7.87;6.80;;;;;;;18.22;64.79;101316.84;4930003;28;96810;-48
2022/09/11 01:46:29;;;;;;;8.00;7.17;;;;;;;18.23;64.31;101317.63;4931722;28;97728;-48
2022/09/11 01:49:05;;;;;;;8.77;7.60;;;;;;;18.25;64.73;101317.84;4940266;28;96779;-49
2022/09/11 01:51:33;;;;;;;9.27;8.10;;;;;;;18.26;64.44;101317.28;4925311;28;97168;-48
2022/09/11 01:54:01;;;;;;;8.30;7.03;;;;;;;18.27;64.40;101332.75;4937509;28;96957;-49
2022/09/11 01:56:33;;;;;;;12.37;8.57;;;;;;;18.28;64.48;101319.56;4939949;28;97363;-48
2022/09/11 01:59:13;;;;;;;10.07;8.47;;;;;;;18.26;65.14;101325.66;4929824;28;96790;-48
2022/09/11 02:01:49;;;;;;;9.50;8.07;;;;;;;18.28;64.59;101330.72;4924667;28;97261;-48
2022/09/11 02:04:23;;;;;;;14.50;10.03;;;;;;;18.30;64.75;101328.16;4925017;28;98622;-48
2022/09/11 02:07:04;;;;;;;12.90;9.20;;;;;;;18.29;64.87;101332.19;4938036;28;102584;-49
2022/09/11 02:09:42;;;;;;;14.07;9.97;;;;;;;18.26;65.16;101325.66;4932233;28;97494;-49
2022/09/11 02:12:11;;;;;;;13.37;9.83;;;;;;;18.24;64.93;101324.69;4932895;28;96908;-49
2022/09/11 02:14:43;;;;;;;14.07;9.83;;;;;;;18.29;64.97;101327.38;4944874;28;97277;-48
2022/09/11 02:17:37;;;;;;;13.40;10.03;;;;;;;18.34;65.32;101328.59;4942973;28;97349;-48
2022/09/11 02:20:04;;;;;;;14.60;9.83;;;;;;;18.36;64.75;101335.13;4940702;28;97107;-48
2022/09/11 02:22:29;;;;;;;15.40;10.17;;;;;;;18.35;64.71;101330.06;4935984;28;96998;-47
2022/09/11 02:24:55;;;;;;;16.77;10.70;;;;;;;18.36;64.59;101342.75;4939445;28;98530;-48
2022/09/11 02:27:23;;;;;;;17.97;10.77;;;;;;;18.36;64.85;101342.75;4939831;28;97093;-47
2022/09/11 02:29:52;;;;;;;18.73;10.97;;;;;;;18.35;64.90;101347.56;4947682;28;97050;-50
2022/09/11 02:32:17;;;;;;;17.93;11.87;;;;;;;18.37;64.89;101344.97;4940293;28;97552;-50
2022/09/11 02:34:45;;;;;;;20.77;12.20;;;;;;;18.41;64.94;101355.84;4942468;28;97393;-47
2022/09/11 02:37:33;;;;;;;15.87;10.50;;;;;;;18.42;65.10;101354.53;4933393;28;96829;-48
2022/09/11 02:40:20;;;;;;;16.90;10.97;;;;;;;18.38;65.39;101354.09;4935665;28;97343;-47
2022/09/11 02:43:01;;;;;;;21.30;11.60;;;;;;;18.34;65.51;101362.03;4930917;28;97325;-48
2022/09/11 02:45:53;;;;;;;22.60;12.53;;;;;;;18.30;65.00;101365.13;4941006;28;101249;-48
2022/09/11 02:48:56;;;;;;;17.57;11.77;;;;;;;18.25;65.87;101365.19;4928975;28;101317;-49
2022/09/11 02:51:35;;;;;;;19.10;11.77;;;;;;;18.20;65.25;101368.78;4951245;28;97005;-47
2022/09/11 02:54:22;;;;;;;18.93;10.40;;;;;;;18.19;65.63;101370.09;4943697;28;97289;-47
2022/09/11 02:56:55;;;;;;;18.10;10.20;;;;;;;18.17;65.33;101367.84;4937352;28;104497;-48
2022/09/11 02:59:27;;;;;;;21.23;11.10;;;;;;;18.14;65.46;101373.69;4945595;28;98364;-51
2022/09/11 03:02:00;;;;;;;16.30;10.07;;;;;;;18.12;65.57;101373.47;4949799;28;96978;-50
2022/09/11 03:04:26;;;;;;;16.33;9.97;;;;;;;18.11;65.35;101374.78;4939632;28;97197;-47
2022/09/11 03:06:52;;;;;;;18.53;11.13;;;;;;;18.10;65.56;101365.66;4935775;28;97753;-51
2022/09/11 03:09:19;;;;;;;18.10;11.23;;;;;;;18.07;65.46;101371.50;4947947;28;97290;-48
2022/09/11 03:11:44;;;;;;;15.80;10.00;;;;;;;18.07;65.72;101374.28;4946462;28;97424;-47
2022/09/11 03:14:11;;;;;;;15.60;9.50;;;;;;;18.09;65.64;101371.72;4941430;28;97050;-48
2022/09/11 03:16:36;;;;;;;17.37;10.80;;;;;;;18.12;65.66;101382.59;4927312;28;98719;-49
2022/09/11 03:19:06;;;;;;;19.77;11.00;;;;;;;18.15;65.65;101380.78;4941184;28;98089;-48
2022/09/11 03:21:32;;;;;;;19.27;10.60;;;;;;;18.16;65.71;101374.69;4935084;28;96603;-52
2022/09/11 03:23:57;;;;;;;15.63;9.90;;;;;;;18.16;65.39;101377.47;4943917;28;97692;-50
2022/09/11 03:26:23;;;;;;;20.17;11.20;;;;;;;18.15;65.64;101384.31;4944709;28;120403;-49
2022/09/11 03:28:49;;;;;;;19.10;10.73;;;;;;;18.13;65.72;101386.88;4928842;28;97186;-51
2022/09/11 03:31:15;;;;;;;21.90;13.20;;;;;;;18.12;65.77;101396.50;4924145;28;97236;-48
2022/09/11 03:33:40;;;;;;;21.23;11.90;;;;;;;18.12;65.95;101387.41;4944744;28;96982;-48
2022/09/11 03:36:05;;;;;;;18.73;11.80;;;;;;;18.14;65.74;101393.97;4941656;28;97118;-54
2022/09/11 03:38:31;;;;;;;21.03;13.37;;;;;;;18.16;65.77;101383.03;4937999;28;98276;-51
2022/09/11 03:40:57;;;;;;;18.30;12.40;;;;;;;18.22;65.68;101402.44;4947185;28;96993;-47
2022/09/11 03:43:22;;;;;;;18.57;10.70;;;;;;;18.25;65.83;101393.81;4943776;28;97546;-49
2022/09/11 03:45:49;;;;;;;22.20;13.20;;;;;;;18.27;65.60;101390.47;4940624;28;96638;-48
2022/09/11 03:48:14;;;;;;;20.77;12.20;;;;;;;18.30;65.60;101397.78;4939600;28;97283;-47
2022/09/11 03:50:40;;;;;;;20.47;12.20;;;;;;;18.34;65.67;101392.66;4938365;28;97294;-48
2022/09/11 03:53:05;;;;;;;20.20;12.90;;;;;;;18.37;65.63;101397.19;4937476;28;96900;-49
2022/09/11 03:55:31;;;;;;;22.30;12.53;;;;;;;18.38;65.41;101395.91;4940205;28;99404;-48
2022/09/11 03:57:57;;;;;;;19.03;12.33;;;;;;;18.41;65.30;101403.22;4939770;28;97436;-51
2022/09/11 04:00:23;;;;;;;23.10;13.23;;;;;;;18.43;65.55;101401.41;4946225;28;97176;-49
2022/09/11 04:02:49;;;;;;;20.60;12.80;;;;;;;18.46;65.41;101405.16;4943464;28;97229;-47
2022/09/11 04:05:14;;;;;;;20.73;12.67;;;;;;;18.46;65.40;101392.00;4934889;28;97298;-47
2022/09/11 04:07:40;;;;;;;23.20;13.90;;;;;;;18.48;65.53;101394.25;4925878;28;97056;-47
2022/09/11 04:10:05;;;;;;;20.07;12.40;;;;;;;18.48;65.47;101400.56;4945657;28;96896;-48
2022/09/11 04:12:31;;;;;;;18.37;12.60;;;;;;;18.47;65.18;101398.31;4940193;28;96866;-47
2022/09/11 04:14:56;;;;;;;20.90;13.30;;;;;;;18.45;65.38;101398.09;4934501;28;114193;-49
2022/09/11 04:17:21;;;;;;;19.87;13.77;;;;;;;18.44;65.31;101394.56;4946319;28;96861;-50
2022/09/11 04:19:47;;;;;;;18.27;12.70;;;;;;;18.45;65.52;101389.75;4943265;28;97182;-53
2022/09/11 04:22:12;;;;;;;21.30;12.63;;;;;;;18.47;65.40;101393.50;4934154;28;96974;-49
2022/09/11 04:24:37;;;;;;;21.37;12.90;;;;;;;18.47;65.32;101393.50;4945061;28;98797;-48
2022/09/11 04:27:03;;;;;;;24.00;12.20;;;;;;;18.46;65.30;101397.56;4933785;28;97146;-48
2022/09/11 04:29:28;;;;;;;23.60;13.60;;;;;;;18.48;65.33;101397.78;4943678;28;97000;-47
2022/09/11 04:31:54;;;;;;;19.80;12.70;;;;;;;18.47;65.41;101407.44;4938790;28;97420;-46
2022/09/11 04:34:20;;;;;;;19.70;12.80;;;;;;;18.47;65.29;101404.66;4930727;28;97665;-47
2022/09/11 04:36:45;;;;;;;14.47;10.60;;;;;;;18.47;65.30;101409.47;4935942;28;96945;-48
2022/09/11 04:39:11;;;;;;;20.23;12.37;;;;;;;18.46;65.40;101410.75;4934875;28;97631;-49
2022/09/11 04:41:36;;;;;;;19.00;12.43;;;;;;;18.47;65.36;101412.25;4951678;28;97341;-54
2022/09/11 04:44:02;;;;;;;17.60;11.80;;;;;;;18.46;65.31;101413.53;4941081;28;97777;-47
2022/09/11 04:46:27;;;;;;;16.57;11.40;;;;;;;18.44;65.60;101416.84;4929697;28;97599;-47
2022/09/11 04:48:54;;;;;;;16.10;11.87;;;;;;;18.43;65.52;101417.38;4940616;28;96971;-49
2022/09/11 04:51:26;;;;;;;16.50;11.87;;;;;;;18.44;65.58;101427.22;4933507;28;97097;-50
2022/09/11 04:53:56;;;;;;;17.20;10.83;;;;;;;18.44;65.65;101422.44;4933528;28;100602;-48
2022/09/11 04:56:27;;;;;;;15.90;11.77;;;;;;;18.45;65.43;101423.94;4940991;28;101678;-48
2022/09/11 04:58:55;;;;;;;14.60;11.20;;;;;;;18.47;65.49;101429.75;4935217;28;97158;-47
2022/09/11 05:01:22;;;;;;;14.23;10.93;;;;;;;18.50;65.54;101425.16;4938939;28;97113;-47
2022/09/11 05:03:48;;;;;;;16.23;11.07;;;;;;;18.53;65.40;101427.63;4937827;28;97958;-49
2022/09/11 05:06:15;;;;;;;14.57;12.23;;;;;;;18.55;65.39;101427.84;4931316;28;97154;-49
2022/09/11 05:08:44;;;;;;;14.90;11.67;;;;;;;18.55;65.53;101435.44;4939217;28;97033;-51
2022/09/11 05:11:15;;;;;;;17.00;11.40;;;;;;;18.55;65.44;101433.41;4951023;28;97074;-47
2022/09/11 05:13:41;;;;;;;16.60;12.00;;;;;;;18.54;65.42;101431.91;4927331;28;97058;-49
2022/09/11 05:16:08;;;;;;;15.30;11.60;;;;;;;18.56;65.43;101436.97;4932335;28;98374;-52
2022/09/11 05:18:34;;;;;;;17.77;11.57;;;;;;;18.55;65.51;101454.94;4933204;28;96862;-47
2022/09/11 05:21:05;;;;;;;15.90;11.63;;;;;;;18.57;65.49;101452.38;4934459;28;97360;-47
2022/09/11 05:23:31;;;;;;;17.30;12.80;;;;;;;18.58;65.23;101448.34;4935032;28;101086;-53
2022/09/11 05:26:04;;;;;;;15.87;11.50;;;;;;;18.58;65.53;101456.69;4920334;28;100469;-47
2022/09/11 05:28:30;;;;;;;13.80;11.40;;;;;;;18.58;65.39;101451.13;4935850;28;97442;-50
2022/09/11 05:30:57;;;;;;;15.30;11.00;;;;;;;18.59;65.39;101456.16;4931103;28;96810;-49
2022/09/11 05:33:23;;;;;;;17.13;10.77;;;;;;;18.59;65.41;101464.53;4924259;28;97618;-47
2022/09/11 05:35:53;;;;;;;13.80;11.17;;;;;;;18.57;65.51;101463.53;4924760;28;96861;-48
2022/09/11 05:38:20;;;;;;;18.50;11.60;;;;;;;18.57;65.51;101469.09;4928598;28;98336;-48
2022/09/11 05:40:48;;;;;;;18.20;11.47;;;;;;;18.59;65.53;101474.91;4943521;28;97173;-48
2022/09/11 05:43:14;;;;;;;13.43;10.10;;;;;;;18.58;65.72;101485.31;4943981;28;98443;-47
2022/09/11 05:45:41;;;;;;;13.20;10.60;;;;;;;18.60;65.82;101484.78;4947244;28;97019;-46
2022/09/11 05:48:07;;;;;;;13.00;10.43;;;;;;;18.61;65.55;101481.47;4938391;28;97338;-49
2022/09/11 05:50:33;;;;;;;15.07;10.17;;;;;;;18.63;65.62;101489.31;4941029;28;96838;-51
2022/09/11 05:52:58;;;;;;;17.10;10.80;;;;;;;18.62;65.47;101490.59;4924093;28;96796;-47
2022/09/11 05:55:24;;;;;;;15.07;10.60;;;;;;;18.61;65.57;101503.00;4935049;28;97665;-47
2022/09/11 05:57:52;;;;;;;13.63;11.10;;;;;;;18.60;65.61;101501.50;4926777;28;96918;-48
2022/09/11 06:00:19;;;;;;;12.90;10.40;;;;;;;18.59;65.72;101508.34;4937087;28;97289;-49
2022/09/11 06:02:44;;;;;;;14.30;10.43;;;;;;;18.58;65.67;101509.66;4933699;28;98492;-46
2022/09/11 06:05:10;;;;;;;14.70;11.07;;;;;;;18.56;65.68;101512.22;4944914;28;114850;-49
2022/09/11 06:07:35;;;;;;;16.10;11.00;;;;;;;18.56;65.76;101517.78;4936772;28;96915;-48
2022/09/11 06:10:01;;;;;;;13.20;10.60;;;;;;;18.56;65.77;101523.34;4945542;28;97003;-48
2022/09/11 06:12:27;;;;;;;13.10;10.43;;;;;;;18.58;65.78;101541.06;4945045;28;97341;-48
2022/09/11 06:14:53;;;;;;;19.27;11.20;;;;;;;18.58;65.71;101532.72;4928616;28;97873;-48
2022/09/11 06:17:19;;;;;;;14.90;10.80;;;;;;;18.59;65.96;101539.00;4936079;28;97387;-53
2022/09/11 06:19:45;;;;;;;12.77;10.30;;;;;;;18.62;65.82;101540.75;4927671;28;97151;-49
2022/09/11 06:22:10;;;;;;;12.50;10.27;;;;;;;18.64;65.67;101543.78;4927989;28;97414;-48
2022/09/11 06:24:35;;;;;;;13.80;11.20;;;;;;;18.67;65.61;101531.56;4934911;28;113457;-48
2022/09/11 06:27:01;;;;;;;14.10;10.67;;;;;;;18.68;65.71;101530.28;4932803;28;96941;-48
2022/09/11 06:29:26;;;;;;;11.50;9.67;;;;;;;18.69;65.78;101540.16;4928233;28;96773;-48
2022/09/11 06:31:53;;;;;;;13.67;10.63;;;;;;;18.70;65.62;101538.88;4936559;28;121988;-48
2022/09/11 06:34:18;;;;;;;12.97;9.97;;;;;;;18.72;65.70;101543.94;4941596;28;97971;-48
2022/09/11 06:36:44;;;;;;;15.83;10.10;;;;;;;18.73;65.69;101537.81;4928131;28;96873;-48
2022/09/11 06:39:09;;;;;;;15.50;10.60;;;;;;;18.77;65.62;101541.06;4939831;28;97261;-48
2022/09/11 06:41:35;;;;;;;13.10;10.80;;;;;;;18.82;65.63;101545.81;4941452;28;109141;-48
2022/09/11 06:44:00;;;;;;;14.33;9.50;;;;;;;18.86;65.61;101540.69;4930969;28;96915;-48
2022/09/11 06:46:25;;;;;;;13.43;10.60;;;;;;;18.90;65.38;101543.91;4933311;28;97218;-48
2022/09/11 06:48:52;;;;;;;11.17;9.40;;;;;;;18.97;65.36;101550.91;4940820;28;97324;-48
2022/09/11 06:51:19;;;;;;;11.57;8.47;;;;;;;19.04;65.27;101556.66;4937347;28;98059;-48
2022/09/11 06:53:48;;;;;;;13.10;10.10;;;;;;;19.11;65.20;101555.28;4945713;28;101730;-48
2022/09/11 06:56:16;;;;;;;10.80;9.30;;;;;;;19.18;65.19;101555.41;4941794;28;97476;-49
2022/09/11 06:58:42;;;;;;;9.83;8.10;;;;;;;19.22;64.83;101555.84;4944617;28;97594;-48
2022/09/11 07:01:16;;;;;;;10.30;8.57;;;;;;;19.28;64.99;101556.53;4948211;28;97369;-48
2022/09/11 07:03:45;;;;;;;11.50;9.07;;;;;;;19.34;65.05;101553.66;4937300;28;97376;-48
2022/09/11 07:06:31;;;;;;;11.93;8.70;;;;;;;19.37;64.95;101556.16;4937252;28;97239;-48
2022/09/11 07:09:01;;;;;;;12.50;8.60;;;;;;;19.40;64.72;101557.88;4944329;28;97279;-48
2022/09/11 07:11:27;;;;;;;10.27;8.87;;;;;;;19.44;64.81;101560.34;4939336;28;97048;-48
2022/09/11 07:13:53;;;;;;;11.80;8.63;;;;;;;19.47;64.71;101559.28;4929656;28;97627;-48
2022/09/11 07:16:19;;;;;;;8.60;7.70;;;;;;;19.49;64.75;101558.75;4937894;28;96889;-48
2022/09/11 07:18:46;;;;;;;12.23;8.00;;;;;;;19.49;64.45;101556.72;4945755;28;97223;-48
2022/09/11 07:21:20;;;;;;;12.73;8.60;;;;;;;19.53;64.57;101559.22;4935170;28;98878;-49
2022/09/11 07:23:48;;;;;;;7.67;6.87;;;;;;;19.52;64.74;101557.69;4924085;28;102954;-48
2022/09/11 07:26:14;;;;;;;10.00;7.23;;;;;;;19.56;64.65;101558.13;4933729;28;97232;-48
2022/09/11 07:28:39;;;;;;;15.60;8.80;;;;;;;19.59;64.62;101559.88;4926105;28;97584;-48
2022/09/11 07:31:11;;;;;;;9.00;7.40;;;;;;;19.63;64.73;101568.69;4931634;28;97513;-48
2022/09/11 07:33:38;;;;;;;9.20;7.63;;;;;;;19.67;64.60;101567.09;4939592;28;97180;-48
2022/09/11 07:36:10;;;;;;;8.70;7.80;;;;;;;19.76;64.42;101568.72;4926079;28;96858;-49
2022/09/11 07:38:38;;;;;;;7.70;6.90;;;;;;;19.79;64.25;101573.97;4935257;28;97291;-48
2022/09/11 07:41:03;;;;;;;9.00;6.60;;;;;;;19.82;64.10;101569.34;4938690;28;97325;-48
2022/09/11 07:43:30;;;;;;;7.43;6.67;;;;;;;19.81;64.08;101565.06;4935999;28;97158;-48
2022/09/11 07:45:55;;;;;;;9.93;6.80;;;;;;;19.81;64.34;101573.44;4930669;28;97158;-48
2022/09/11 07:48:20;;;;;;;8.27;7.00;;;;;;;19.84;64.36;101575.91;4937195;28;97358;-48
2022/09/11 07:51:03;;;;;;;11.07;6.97;;;;;;;19.84;64.08;101575.91;4942713;28;97562;-48
2022/09/11 07:53:34;;;;;;;7.60;6.77;;;;;;;19.86;63.92;101583.75;4944197;28;96668;-48
2022/09/11 07:56:04;;;;;;;8.30;7.17;;;;;;;19.85;63.96;101577.44;4942705;28;96834;-48
2022/09/11 07:58:34;;;;;;;11.47;8.97;;;;;;;19.84;63.80;101577.94;4927214;28;97006;-48
2022/09/11 08:01:01;;;;;;;10.00;8.50;;;;;;;19.82;64.11;101572.91;4934996;28;97514;-48
2022/09/11 08:03:27;;;;;;;13.47;8.70;;;;;;;19.85;64.01;101582.25;4927084;28;97091;-48
2022/09/11 08:05:56;;;;;;;11.43;7.60;;;;;;;19.85;63.90;101580.22;4936299;28;96880;-48
2022/09/11 08:08:22;;;;;;;13.60;9.03;;;;;;;19.90;63.98;101586.97;4941868;28;97056;-48
2022/09/11 08:10:47;;;;;;;11.90;8.93;;;;;;;19.95;63.89;101591.72;4945611;28;97452;-48
2022/09/11 08:13:13;;;;;;;12.60;9.07;;;;;;;19.99;64.03;101587.31;4944871;28;98432;-48
2022/09/11 08:15:45;;;;;;;11.67;9.30;;;;;;;20.07;63.78;101593.03;4948498;28;97612;-48
2022/09/11 08:18:10;;;;;;;12.27;9.00;;;;;;;20.13;63.73;101591.66;4949590;28;97248;-48
2022/09/11 08:20:36;;;;;;;14.00;9.77;;;;;;;20.18;63.58;101599.16;4946639;28;107836;-48
2022/09/11 08:23:01;;;;;;;13.10;9.07;;;;;;;20.24;63.69;101604.69;4944834;28;123829;-48
2022/09/11 08:25:27;;;;;;;14.30;8.90;;;;;;;20.30;63.61;101608.13;4938035;28;97436;-48
2022/09/11 08:27:53;;;;;;;11.73;8.37;;;;;;;20.30;63.31;101604.56;4946673;28;97094;-48
2022/09/11 08:30:18;;;;;;;11.60;8.70;;;;;;;20.32;63.30;101605.53;4944571;28;97316;-48
2022/09/11 08:32:43;;;;;;;9.60;7.50;;;;;;;20.35;63.44;101607.28;4931933;28;97101;-48
2022/09/11 08:35:08;;;;;;;13.30;8.23;;;;;;;20.40;63.40;101609.19;4940093;28;110745;-48
2022/09/11 08:37:34;;;;;;;10.57;7.70;;;;;;;20.42;63.21;101612.19;4912115;28;116394;-48
2022/09/11 08:40:00;;;;;;;9.20;7.50;;;;;;;20.43;63.10;101619.31;4924617;28;98052;-48
2022/09/11 08:42:27;;;;;;;11.17;6.90;;;;;;;20.43;63.07;101619.31;4924081;28;97381;-48
2022/09/11 08:44:57;;;;;;;7.20;6.27;;;;;;;20.43;63.05;101619.31;4933105;28;97314;-48
2022/09/11 08:47:34;;;;;;;11.80;7.60;;;;;;;20.40;62.86;101622.44;4939444;28;97659;-48
2022/09/11 08:50:10;;;;;;;8.80;6.60;;;;;;;20.41;62.91;101624.69;4930536;28;102128;-48
2022/09/11 08:52:36;;;;;;;7.07;5.93;;;;;;;20.43;63.19;101627.69;4946487;28;97448;-49
2022/09/11 08:55:02;;;;;;;9.30;6.60;;;;;;;20.47;63.29;101627.34;4933095;28;96829;-49
2022/09/11 08:57:41;;;;;;;10.83;7.13;;;;;;;20.51;63.13;101636.19;4931654;28;97048;-48
2022/09/11 09:00:14;;;;;;;9.17;6.93;;;;;;;20.55;63.19;101631.75;4943442;28;102731;-48
2022/09/11 09:03:01;;;;;;;11.77;8.07;;;;;;;20.61;63.09;101631.66;4926602;28;98339;-48
2022/09/11 09:05:41;;;;;;;10.50;8.17;;;;;;;20.64;62.86;101636.91;4916801;28;97280;-48
2022/09/11 09:08:43;;;;;;;13.00;8.20;;;;;;;20.68;62.49;101642.19;4900524;28;97614;-48
2022/09/11 09:11:30;;;;;;;12.20;7.40;;;;;;;20.67;62.62;101633.06;4931209;28;102049;-48
2022/09/11 09:13:58;;;;;;;9.27;7.53;;;;;;;20.69;62.74;101641.66;4961871;28;97200;-48
2022/09/11 09:16:42;;;;;;;10.90;6.60;;;;;;;20.67;62.64;101641.44;4948403;28;97726;-49
2022/09/11 09:19:17;;;;;;;9.77;7.27;;;;;;;20.63;62.72;101652.22;4911630;28;97273;-48
2022/09/11 09:21:57;;;;;;;9.70;7.23;;;;;;;20.55;62.79;101642.94;4923735;28;109003;-48
2022/09/11 09:24:24;;;;;;;10.70;7.30;;;;;;;20.50;62.96;101645.84;4927516;28;100354;-48
2022/09/11 09:26:52;;;;;;;10.50;8.07;;;;;;;20.46;62.92;101646.19;4938897;28;97812;-48
2022/09/11 09:29:22;;;;;;;9.80;6.33;;;;;;;20.46;63.06;101651.78;4945771;28;98410;-48
2022/09/11 09:31:52;;;;;;;12.20;7.90;;;;;;;20.50;63.04;101652.22;4942208;28;102984;-48
2022/09/11 09:34:23;;;;;;;9.43;6.50;;;;;;;20.56;62.98;101658.44;4936458;28;103575;-49
2022/09/11 09:37:22;;;;;;;8.73;7.13;;;;;;;20.61;62.93;101652.00;4926839;28;97295;-49
2022/09/11 09:39:48;;;;;;;7.10;5.60;;;;;;;20.65;62.70;101651.66;4944547;28;97192;-49
2022/09/11 09:42:27;;;;;;;5.33;4.83;;;;;;;20.71;62.42;101658.66;4934031;28;100694;-48
2022/09/11 09:45:20;;;;;;;5.47;4.40;;;;;;;20.73;62.39;101664.44;4944670;28;101727;-48
2022/09/11 09:47:47;;;;;;;5.33;4.83;;;;;;;20.75;62.55;101666.72;4938140;28;97147;-47
2022/09/11 09:50:20;;;;;;;5.37;3.97;;;;;;;20.79;62.59;101659.50;4942626;28;96956;-47
2022/09/11 09:52:47;;;;;;;6.70;4.93;;;;;;;20.80;62.43;101661.00;4938185;28;97201;-48
2022/09/11 09:55:15;;;;;;;6.50;4.47;;;;;;;20.81;62.40;101658.97;4946461;28;98966;-48
2022/09/11 09:57:42;;;;;;;4.00;3.40;;;;;;;20.81;62.26;101664.56;4947434;28;97189;-49
2022/09/11 10:00:11;;;;;;;4.90;4.10;;;;;;;20.83;62.02;101659.94;4942326;28;97682;-48
2022/09/11 10:02:37;;;;;;;4.23;3.77;;;;;;;20.86;62.03;101667.22;4945525;28;98129;-48
2022/09/11 10:05:16;;;;;;;3.63;3.07;;;;;;;20.93;61.69;101660.22;4943763;28;97383;-48
2022/09/11 10:08:02;;;;;;;3.43;3.13;;;;;;;21.03;62.11;101669.72;4942185;28;97349;-48
2022/09/11 10:10:39;;;;;;;3.00;2.70;;;;;;;21.15;61.38;101664.63;4940749;28;97085;-48
2022/09/11 10:13:23;;;;;;;4.07;3.67;;;;;;;21.19;61.12;101667.84;4947178;28;97613;-50
2022/09/11 10:15:50;;;;;;;3.53;3.23;;;;;;;21.26;61.58;101664.38;4943539;28;97349;-49
2022/09/11 10:18:28;;;;;;;5.57;3.93;;;;;;;21.28;61.36;101668.16;4944992;28;97055;-49
2022/09/11 10:21:12;;;;;;;3.50;3.20;;;;;;;21.36;61.37;101668.25;4943778;28;97158;-48
2022/09/11 10:24:01;;;;;;;3.87;3.47;;;;;;;21.48;61.27;101664.63;4941040;28;97530;-49
2022/09/11 10:26:44;;;;;;;4.10;3.17;;;;;;;21.58;61.08;101667.72;4943898;28;97818;-48
2022/09/11 10:29:23;;;;;;;4.73;4.10;;;;;;;21.66;61.05;101662.94;4945186;28;97185;-48
2022/09/11 10:31:51;;;;;;;5.53;3.90;;;;;;;21.76;61.14;101666.78;4945051;28;97708;-49
2022/09/11 10:34:19;;;;;;;3.87;3.50;;;;;;;21.73;60.70;101670.69;4944493;28;97811;-50
2022/09/11 10:36:59;;;;;;;5.27;4.07;;;;;;;21.71;60.39;101664.84;4944690;28;97107;-52
2022/09/11 10:39:27;;;;;;;3.80;3.37;;;;;;;21.81;60.82;101665.13;4941566;28;97475;-50
2022/09/11 10:41:58;;;;;;;3.93;3.50;;;;;;;21.84;60.48;101666.88;4941967;28;97222;-51
2022/09/11 10:44:28;;;;;;;4.73;3.43;;;;;;;21.76;60.29;101668.81;4942552;28;98633;-51
2022/09/11 10:47:21;;;;;;;3.90;3.50;;;;;;;21.71;60.05;101664.84;4941294;28;97029;-51
2022/09/11 10:49:47;;;;;;;7.37;4.17;;;;;;;21.73;60.69;101665.06;4942792;28;97227;-50
2022/09/11 10:52:12;;;;;;;5.57;3.73;;;;;;;21.91;60.14;101677.41;4939285;28;97497;-50
2022/09/11 10:54:43;;;;;;;3.83;3.00;;;;;;;22.13;60.06;101671.97;4942067;28;102398;-53
2022/09/11 10:57:30;;;;;;;5.03;3.60;;;;;;;22.29;59.15;101668.00;4942724;28;97624;-50
2022/09/11 11:00:01;;;;;;;4.80;3.80;;;;;;;22.29;59.47;101668.00;4943267;28;96928;-50
2022/09/11 11:02:30;;;;;;;3.50;3.23;;;;;;;22.37;59.72;101673.63;4940345;28;97388;-50
2022/09/11 11:05:04;;;;;;;3.17;2.87;;;;;;;22.43;58.98;101679.13;4903823;28;97910;-50
2022/09/11 11:07:52;;;;;;;3.33;2.93;;;;;;;22.42;58.67;101674.78;4933314;28;96944;-50
2022/09/11 11:10:47;;;;;;;3.97;2.50;;;;;;;22.40;58.76;101678.16;4915383;28;97987;-50
2022/09/11 11:13:21;;;;;;;3.30;3.00;;;;;;;22.28;58.93;101685.34;4912600;28;97641;-51
2022/09/11 11:16:14;;;;;;;3.97;2.90;;;;;;;22.26;58.93;101679.53;4932706;28;97529;-49
2022/09/11 11:19:06;;;;;;;3.40;2.97;;;;;;;22.39;58.72;101674.59;4910390;28;97745;-49
2022/09/11 11:21:44;;;;;;;2.50;2.30;;;;;;;22.52;58.37;101675.81;4940111;28;97411;-50
2022/09/11 11:24:17;;;;;;;4.47;2.43;;;;;;;22.58;58.68;101670.78;4937793;28;97255;-50
2022/09/11 11:26:57;;;;;;;4.50;2.83;;;;;;;22.60;57.90;101674.59;4926842;28;96843;-50
2022/09/11 11:29:37;;;;;;;3.13;2.70;;;;;;;22.53;58.13;101688.53;4936971;28;98112;-50
2022/09/11 11:32:29;;;;;;;3.20;2.90;;;;;;;22.31;57.83;101681.47;4935634;28;98220;-50
2022/09/11 11:35:29;;;;;;;2.83;2.60;;;;;;;22.25;58.36;101690.03;4927399;28;96705;-50